Litchfield, Minnesota
Current Conditions -  °F | °C
As of 5:12 PM on Friday 31 Oct 2014 (Local Time) from KLJF Reporting Station
Clear Clear  
Wind Chill: 39°   Ceiling: Unl
Heat Index: 39°   Visibility: 10mi
Dew Point: 16°   Wind: 3mph
Humidity: 39%   Direction: 80°E
Pressure: 30.5"   Gusts: NA
Location:  45.13°N, 94.53°W
Report Text: KLJF 312212Z AUTO 08003KT 10SM CLR 04/M09 A3050 RMK AO2
Loading
Personal Weather Stations






























Interactive Weather Map
Tropical Storm Tracking
New forecast layout! Learn more

10-Day Weather Forecast

Advertisements
Track Severe Weather on mobile